Time,TemperatureF,DewpointF,PressureIn,WindDirection,WindDirectionDegrees,WindSpeedMPH,WindSpeedGustMPH,Humidity,HourlyPrecipIn,Conditions,Clouds,dailyrainin,SolarRadiationWatts/m^2,SoftwareType,DateUTC
2013-05-25 00:00:00,57.7,34.8,29.84,North,-999,10.0,13.0,42,0.00,,,0.00,0.00,VWS V14.01,2013-05-25 06:00:00,
2013-05-25 00:05:00,58.6,34.4,29.84,North,-999,8.0,13.0,40,0.00,,,0.00,0.00,VWS V14.01,2013-05-25 06:05:00,
2013-05-25 00:10:00,58.7,34.5,29.84,North,-999,6.0,12.0,40,0.00,,,0.00,0.00,VWS V14.01,2013-05-25 06:10:00,
2013-05-25 00:15:00,58.4,34.2,29.84,North,-999,9.0,12.0,40,0.00,,,0.00,0.00,VWS V14.01,2013-05-25 06:15:00,
2013-05-25 00:20:00,58.9,32.7,29.84,North,-999,9.0,13.0,37,0.00,,,0.00,0.00,VWS V14.01,2013-05-25 06:20:00,
2013-05-25 00:25:00,59.2,32.3,29.84,North,-999,9.0,13.0,36,0.00,,,0.00,0.00,VWS V14.01,2013-05-25 06:25:00,
2013-05-25 00:30:00,59.0,30.7,29.84,North,-999,8.0,10.0,34,0.00,,,0.00,0.00,VWS V14.01,2013-05-25 06:30:00,
2013-05-25 00:35:00,58.8,31.9,29.84,North,-999,4.0,10.0,36,0.00,,,0.00,0.00,VWS V14.01,2013-05-25 06:35:00,
2013-05-25 00:40:00,58.0,31.2,29.84,North,-999,3.0,5.0,36,0.00,,,0.00,0.00,VWS V14.01,2013-05-25 06:40:00,
2013-05-25 00:45:00,57.5,31.5,29.84,North,-999,1.0,5.0,37,0.00,,,0.00,0.00,VWS V14.01,2013-05-25 06:45:00,
2013-05-25 00:50:00,57.1,31.1,29.84,North,-999,0.0,4.0,37,0.00,,,0.00,0.00,VWS V14.01,2013-05-25 06:50:00,
2013-05-25 00:55:00,56.7,30.1,29.84,North,-999,0.0,4.0,36,0.00,,,0.00,0.00,VWS V14.01,2013-05-25 06:55:00,
2013-05-25 01:00:00,56.3,32.9,29.84,North,-999,0.0,0.0,41,0.00,,,0.00,0.00,VWS V14.01,2013-05-25 07:00:00,
2013-05-25 01:05:00,55.4,33.9,29.84,North,-999,0.0,0.0,44,0.00,,,0.00,0.00,VWS V14.01,2013-05-25 07:05:00,
2013-05-25 01:10:00,54.6,33.1,29.84,North,-999,0.0,0.0,44,0.00,,,0.00,0.00,VWS V14.01,2013-05-25 07:10:00,
2013-05-25 01:15:00,54.2,30.4,29.84,North,-999,0.0,0.0,40,0.00,,,0.00,0.00,VWS V14.01,2013-05-25 07:15:00,
2013-05-25 01:20:00,54.7,30.9,29.83,North,-999,0.0,3.0,40,0.00,,,0.00,0.00,VWS V14.01,2013-05-25 07:20:00,
2013-05-25 01:25:00,54.9,31.0,29.83,North,-999,0.0,3.0,40,0.00,,,0.00,0.00,VWS V14.01,2013-05-25 07:25:00,
2013-05-25 01:30:00,54.9,31.7,29.83,North,-999,0.0,0.0,41,0.00,,,0.00,0.00,VWS V14.01,2013-05-25 07:30:00,
2013-05-25 01:35:00,54.6,30.8,29.83,North,-999,0.0,0.0,40,0.00,,,0.00,0.00,VWS V14.01,2013-05-25 07:35:00,
2013-05-25 01:40:00,54.2,32.8,29.84,North,-999,0.0,4.0,44,0.00,,,0.00,0.00,VWS V14.01,2013-05-25 07:40:00,
2013-05-25 01:45:00,53.7,32.9,29.83,North,-999,0.0,4.0,45,0.00,,,0.00,0.00,VWS V14.01,2013-05-25 07:45:00,
2013-05-25 01:50:00,53.1,32.3,29.83,North,-999,0.0,0.0,45,0.00,,,0.00,0.00,VWS V14.01,2013-05-25 07:50:00,
2013-05-25 01:55:00,52.6,34.0,29.83,North,-999,0.0,0.0,49,0.00,,,0.00,0.00,VWS V14.01,2013-05-25 07:55:00,
2013-05-25 02:00:00,51.6,35.0,29.83,North,-999,0.0,0.0,53,0.00,,,0.00,0.00,VWS V14.01,2013-05-25 08:00:00,
2013-05-25 02:05:00,50.8,35.7,29.83,North,-999,4.0,9.0,56,0.00,,,0.00,0.00,VWS V14.01,2013-05-25 08:05:00,
2013-05-25 02:10:00,49.9,35.3,29.84,North,-999,4.0,9.0,57,0.00,,,0.00,0.00,VWS V14.01,2013-05-25 08:10:00,
2013-05-25 02:15:00,49.6,34.6,29.83,North,-999,4.0,9.0,56,0.00,,,0.00,0.00,VWS V14.01,2013-05-25 08:15:00,
2013-05-25 02:20:00,49.4,34.8,29.83,North,-999,3.0,10.0,57,0.00,,,0.00,0.00,VWS V14.01,2013-05-25 08:20:00,
2013-05-25 02:25:00,48.9,35.2,29.83,North,-999,4.0,10.0,59,0.00,,,0.00,0.00,VWS V14.01,2013-05-25 08:25:00,
2013-05-25 02:30:00,48.4,35.2,29.83,North,-999,0.0,6.0,60,0.00,,,0.00,0.00,VWS V14.01,2013-05-25 08:30:00,
2013-05-25 02:35:00,48.3,34.7,29.84,North,-999,0.0,6.0,59,0.00,,,0.00,0.00,VWS V14.01,2013-05-25 08:35:00,
2013-05-25 02:40:00,48.3,35.1,29.84,North,-999,0.0,0.0,60,0.00,,,0.00,0.00,VWS V14.01,2013-05-25 08:40:00,
2013-05-25 02:45:00,48.6,34.9,29.83,North,-999,4.0,9.0,59,0.00,,,0.00,0.00,VWS V14.01,2013-05-25 08:45:00,
2013-05-25 02:50:00,48.5,34.8,29.84,North,-999,0.0,0.0,59,0.00,,,0.00,0.00,VWS V14.01,2013-05-25 08:50:00,
2013-05-25 02:55:00,48.3,34.2,29.83,North,-999,0.0,0.0,58,0.00,,,0.00,0.00,VWS V14.01,2013-05-25 08:55:00,
2013-05-25 03:00:00,48.4,33.9,29.83,North,-999,0.0,0.0,57,0.00,,,0.00,0.00,VWS V14.01,2013-05-25 09:00:00,
2013-05-25 03:05:00,49.0,33.1,29.84,North,-999,4.0,6.0,54,0.00,,,0.00,0.00,VWS V14.01,2013-05-25 09:05:00,
2013-05-25 03:10:00,49.3,33.4,29.83,North,-999,7.0,8.0,54,0.00,,,0.00,0.00,VWS V14.01,2013-05-25 09:10:00,
2013-05-25 03:15:00,48.8,33.8,29.83,North,-999,4.0,8.0,56,0.00,,,0.00,0.00,VWS V14.01,2013-05-25 09:15:00,
2013-05-25 03:20:00,48.2,33.7,29.83,North,-999,5.0,7.0,57,0.00,,,0.00,0.00,VWS V14.01,2013-05-25 09:20:00,
2013-05-25 03:25:00,48.6,33.2,29.83,North,-999,5.0,7.0,55,0.00,,,0.00,0.00,VWS V14.01,2013-05-25 09:25:00,
2013-05-25 03:30:00,48.8,34.3,29.83,North,-999,5.0,6.0,57,0.00,,,0.00,0.00,VWS V14.01,2013-05-25 09:30:00,
2013-05-25 03:35:00,47.9,34.3,29.83,North,-999,5.0,6.0,59,0.00,,,0.00,0.00,VWS V14.01,2013-05-25 09:35:00,
2013-05-25 03:40:00,48.3,33.8,29.83,North,-999,7.0,9.0,57,0.00,,,0.00,0.00,VWS V14.01,2013-05-25 09:40:00,
2013-05-25 03:45:00,48.5,33.5,29.83,North,-999,6.0,9.0,56,0.00,,,0.00,0.00,VWS V14.01,2013-05-25 09:45:00,
2013-05-25 03:50:00,49.3,32.4,29.84,North,-999,8.0,10.0,52,0.00,,,0.00,0.00,VWS V14.01,2013-05-25 09:50:00,
2013-05-25 03:55:00,49.6,33.2,29.84,North,-999,8.0,10.0,53,0.00,,,0.00,0.00,VWS V14.01,2013-05-25 09:55:00,
2013-05-25 04:00:00,48.8,33.8,29.84,North,-999,6.0,7.0,56,0.00,,,0.00,0.00,VWS V14.01,2013-05-25 10:00:00,
2013-05-25 04:05:00,48.5,33.1,29.84,North,-999,5.0,7.0,55,0.00,,,0.00,0.00,VWS V14.01,2013-05-25 10:05:00,
2013-05-25 04:10:00,48.7,32.8,29.83,North,-999,10.0,11.0,54,0.00,,,0.00,0.00,VWS V14.01,2013-05-25 10:10:00,
2013-05-25 04:15:00,48.8,32.9,29.83,North,-999,5.0,11.0,54,0.00,,,0.00,0.00,VWS V14.01,2013-05-25 10:15:00,
2013-05-25 04:20:00,48.2,33.7,29.84,North,-999,6.0,7.0,57,0.00,,,0.00,0.00,VWS V14.01,2013-05-25 10:20:00,
2013-05-25 04:25:00,47.2,33.6,29.84,North,-999,7.0,7.0,59,0.00,,,0.00,0.00,VWS V14.01,2013-05-25 10:25:00,
2013-05-25 04:30:00,47.0,34.3,29.84,North,-999,0.0,4.0,61,0.00,,,0.00,0.00,VWS V14.01,2013-05-25 10:30:00,
2013-05-25 04:35:00,46.5,34.2,29.84,North,-999,0.0,4.0,62,0.00,,,0.00,0.00,VWS V14.01,2013-05-25 10:35:00,
2013-05-25 04:40:00,46.2,33.9,29.84,North,-999,6.0,6.0,62,0.00,,,0.00,0.00,VWS V14.01,2013-05-25 10:40:00,
2013-05-25 04:45:00,46.4,33.7,29.84,North,-999,0.0,7.0,61,0.00,,,0.00,0.00,VWS V14.01,2013-05-25 10:45:00,
2013-05-25 04:50:00,46.3,34.0,29.84,North,-999,4.0,4.0,62,0.00,,,0.00,0.00,VWS V14.01,2013-05-25 10:50:00,
2013-05-25 04:55:00,46.4,33.7,29.84,North,-999,3.0,7.0,61,0.00,,,0.00,0.00,VWS V14.01,2013-05-25 10:55:00,
2013-05-25 05:00:00,46.2,33.5,29.84,North,-999,5.0,6.0,61,0.00,,,0.00,0.00,VWS V14.01,2013-05-25 11:00:00,
2013-05-25 05:05:00,46.1,33.4,29.84,North,-999,4.0,6.0,61,0.00,,,0.00,0.00,VWS V14.01,2013-05-25 11:05:00,
2013-05-25 05:10:00,46.3,33.2,29.84,North,-999,4.0,5.0,60,0.00,,,0.00,0.00,VWS V14.01,2013-05-25 11:10:00,
2013-05-25 05:15:00,46.6,33.0,29.84,North,-999,4.0,6.0,59,0.00,,,0.00,0.00,VWS V14.01,2013-05-25 11:15:00,
2013-05-25 05:20:00,46.6,33.5,29.84,North,-999,5.0,5.0,60,0.00,,,0.00,0.00,VWS V14.01,2013-05-25 11:20:00,
2013-05-25 05:25:00,46.0,33.7,29.84,North,-999,4.0,6.0,62,0.00,,,0.00,0.00,VWS V14.01,2013-05-25 11:25:00,
2013-05-25 05:30:00,45.5,34.0,29.84,North,-999,4.0,5.0,64,0.00,,,0.00,0.00,VWS V14.01,2013-05-25 11:30:00,
2013-05-25 05:34:00,45.0,34.0,29.84,North,-999,5.0,6.0,65,0.00,,,0.00,0.00,VWS V14.01,2013-05-25 11:34:00,
2013-05-25 05:39:00,44.9,33.9,29.84,North,-999,5.0,6.0,65,0.00,,,0.00,5.00,VWS V14.01,2013-05-25 11:39:00,
2013-05-25 05:44:00,44.9,33.9,29.84,North,-999,4.0,6.0,65,0.00,,,0.00,9.00,VWS V14.01,2013-05-25 11:44:00,
2013-05-25 05:49:00,44.9,33.9,29.84,North,-999,4.0,6.0,65,0.00,,,0.00,11.00,VWS V14.01,2013-05-25 11:49:00,
2013-05-25 05:54:00,45.6,33.3,29.84,North,-999,5.0,7.0,62,0.00,,,0.00,14.00,VWS V14.01,2013-05-25 11:54:00,
2013-05-25 05:59:00,45.5,33.7,29.84,North,-999,4.0,6.0,63,0.00,,,0.00,16.00,VWS V14.01,2013-05-25 11:59:00,
2013-05-25 06:04:00,45.0,34.0,29.84,North,-999,4.0,6.0,65,0.00,,,0.00,18.00,VWS V14.01,2013-05-25 12:04:00,
2013-05-25 06:09:00,44.7,34.0,29.84,North,-999,4.0,5.0,66,0.00,,,0.00,21.00,VWS V14.01,2013-05-25 12:09:00,
2013-05-25 06:14:00,44.7,34.4,29.84,North,-999,3.0,5.0,67,0.00,,,0.00,23.00,VWS V14.01,2013-05-25 12:14:00,
2013-05-25 06:19:00,45.0,34.3,29.84,North,-999,0.0,0.0,66,0.00,,,0.00,25.00,VWS V14.01,2013-05-25 12:19:00,
2013-05-25 06:24:00,45.2,34.5,29.84,North,-999,0.0,0.0,66,0.00,,,0.00,28.00,VWS V14.01,2013-05-25 12:24:00,
2013-05-25 06:29:00,45.7,34.6,29.84,North,-999,5.0,5.0,65,0.00,,,0.00,30.00,VWS V14.01,2013-05-25 12:29:00,
2013-05-25 06:34:00,46.3,34.4,29.84,North,-999,6.0,7.0,63,0.00,,,0.00,30.00,VWS V14.01,2013-05-25 12:34:00,
2013-05-25 06:39:00,46.9,35.0,29.84,North,-999,7.0,8.0,63,0.00,,,0.00,33.00,VWS V14.01,2013-05-25 12:39:00,
2013-05-25 06:44:00,47.4,35.0,29.84,North,-999,9.0,10.0,62,0.00,,,0.00,33.00,VWS V14.01,2013-05-25 12:44:00,
2013-05-25 06:49:00,48.1,34.5,29.84,North,-999,7.0,9.0,59,0.00,,,0.00,35.00,VWS V14.01,2013-05-25 12:49:00,
2013-05-25 06:54:00,48.6,34.5,29.84,North,-999,7.0,10.0,58,0.00,,,0.00,39.00,VWS V14.01,2013-05-25 12:54:00,
2013-05-25 06:59:00,48.8,35.1,29.84,North,-999,10.0,10.0,59,0.00,,,0.00,42.00,VWS V14.01,2013-05-25 12:59:00,
2013-05-25 07:04:00,49.2,34.6,29.85,North,-999,6.0,11.0,57,0.00,,,0.00,42.00,VWS V14.01,2013-05-25 13:04:00,
2013-05-25 07:09:00,49.8,34.8,29.85,North,-999,9.0,11.0,56,0.00,,,0.00,42.00,VWS V14.01,2013-05-25 13:09:00,
2013-05-25 07:14:00,50.3,34.3,29.84,North,-999,9.0,11.0,54,0.00,,,0.00,49.00,VWS V14.01,2013-05-25 13:14:00,
2013-05-25 07:19:00,50.8,34.8,29.84,North,-999,7.0,11.0,54,0.00,,,0.00,58.00,VWS V14.01,2013-05-25 13:19:00,
2013-05-25 07:24:00,51.2,34.2,29.85,North,-999,7.0,11.0,52,0.00,,,0.00,79.00,VWS V14.01,2013-05-25 13:24:00,
2013-05-25 07:29:00,51.7,34.2,29.84,North,-999,5.0,6.0,51,0.00,,,0.00,113.00,VWS V14.01,2013-05-25 13:29:00,
2013-05-25 07:34:00,52.2,33.6,29.85,North,-999,9.0,11.0,49,0.00,,,0.00,151.00,VWS V14.01,2013-05-25 13:34:00,
2013-05-25 07:39:00,52.6,34.0,29.84,North,-999,5.0,10.0,49,0.00,,,0.00,206.00,VWS V14.01,2013-05-25 13:39:00,
2013-05-25 07:44:00,53.2,33.5,29.84,North,-999,9.0,10.0,47,0.00,,,0.00,258.00,VWS V14.01,2013-05-25 13:44:00,
2013-05-25 07:49:00,53.7,33.4,29.84,North,-999,6.0,7.0,46,0.00,,,0.00,306.00,VWS V14.01,2013-05-25 13:49:00,
2013-05-25 07:54:00,54.2,34.4,29.84,North,-999,7.0,9.0,47,0.00,,,0.00,336.00,VWS V14.01,2013-05-25 13:54:00,
2013-05-25 07:59:00,54.6,34.2,29.84,North,-999,7.0,8.0,46,0.00,,,0.00,353.00,VWS V14.01,2013-05-25 13:59:00,
2013-05-25 08:04:00,55.0,34.6,29.84,North,-999,6.0,8.0,46,0.00,,,0.00,367.00,VWS V14.01,2013-05-25 14:04:00,
2013-05-25 08:09:00,55.4,33.3,29.84,North,-999,4.0,5.0,43,0.00,,,0.00,383.00,VWS V14.01,2013-05-25 14:09:00,
2013-05-25 08:14:00,55.8,33.1,29.84,North,-999,7.0,7.0,42,0.00,,,0.00,399.00,VWS V14.01,2013-05-25 14:14:00,
2013-05-25 08:19:00,56.2,32.8,29.84,North,-999,4.0,6.0,41,0.00,,,0.00,415.00,VWS V14.01,2013-05-25 14:19:00,
2013-05-25 08:24:00,56.8,32.8,29.84,North,-999,5.0,7.0,40,0.00,,,0.00,429.00,VWS V14.01,2013-05-25 14:24:00,
2013-05-25 08:29:00,57.3,34.4,29.84,North,-999,7.0,7.0,42,0.00,,,0.00,445.00,VWS V14.01,2013-05-25 14:29:00,
2013-05-25 08:34:00,57.6,34.1,29.84,North,-999,4.0,7.0,41,0.00,,,0.00,459.00,VWS V14.01,2013-05-25 14:34:00,
2013-05-25 08:39:00,57.8,33.0,29.84,North,-999,4.0,6.0,39,0.00,,,0.00,475.00,VWS V14.01,2013-05-25 14:39:00,
2013-05-25 08:44:00,58.1,32.0,29.84,North,-999,4.0,6.0,37,0.00,,,0.00,490.00,VWS V14.01,2013-05-25 14:44:00,
2013-05-25 08:49:00,58.4,31.6,29.84,North,-999,3.0,8.0,36,0.00,,,0.00,506.00,VWS V14.01,2013-05-25 14:49:00,
2013-05-25 08:54:00,58.7,31.1,29.84,North,-999,2.0,8.0,35,0.00,,,0.00,519.00,VWS V14.01,2013-05-25 14:54:00,
2013-05-25 08:59:00,59.0,31.4,29.84,North,-999,6.0,6.0,35,0.00,,,0.00,538.00,VWS V14.01,2013-05-25 14:59:00,
2013-05-25 09:04:00,59.3,31.0,29.84,North,-999,0.0,6.0,34,0.00,,,0.00,550.00,VWS V14.01,2013-05-25 15:04:00,
2013-05-25 09:09:00,59.6,30.5,29.84,North,-999,0.0,0.0,33,0.00,,,0.00,568.00,VWS V14.01,2013-05-25 15:09:00,
2013-05-25 09:14:00,59.9,31.5,29.83,North,-999,4.0,6.0,34,0.00,,,0.00,580.00,VWS V14.01,2013-05-25 15:14:00,
2013-05-25 09:19:00,60.3,30.3,29.84,North,-999,0.0,4.0,32,0.00,,,0.00,587.00,VWS V14.01,2013-05-25 15:19:00,
2013-05-25 09:24:00,60.7,30.7,29.84,North,-999,0.0,5.0,32,0.00,,,0.00,605.00,VWS V14.01,2013-05-25 15:24:00,
2013-05-25 09:29:00,60.9,32.4,29.83,North,-999,5.0,6.0,34,0.00,,,0.00,626.00,VWS V14.01,2013-05-25 15:29:00,
2013-05-25 09:34:00,61.2,36.1,29.83,North,-999,2.0,6.0,39,0.00,,,0.00,636.00,VWS V14.01,2013-05-25 15:34:00,
2013-05-25 09:39:00,61.3,36.2,29.83,North,-999,3.0,6.0,39,0.00,,,0.00,613.00,VWS V14.01,2013-05-25 15:39:00,
2013-05-25 09:44:00,61.4,35.6,29.83,North,-999,2.0,6.0,38,0.00,,,0.00,670.00,VWS V14.01,2013-05-25 15:44:00,
2013-05-25 09:49:00,61.6,35.8,29.83,North,-999,0.0,3.0,38,0.00,,,0.00,680.00,VWS V14.01,2013-05-25 15:49:00,
2013-05-25 09:54:00,62.1,35.5,29.83,North,-999,0.0,6.0,37,0.00,,,0.00,693.00,VWS V14.01,2013-05-25 15:54:00,
2013-05-25 09:59:00,62.2,35.6,29.83,North,-999,5.0,5.0,37,0.00,,,0.00,686.00,VWS V14.01,2013-05-25 15:59:00,
2013-05-25 10:04:00,62.5,34.5,29.83,North,-999,0.0,5.0,35,0.00,,,0.00,712.00,VWS V14.01,2013-05-25 16:04:00,
2013-05-25 10:09:00,63.2,35.1,29.83,North,-999,0.0,0.0,35,0.00,,,0.00,721.00,VWS V14.01,2013-05-25 16:09:00,
2013-05-25 10:14:00,63.7,34.8,29.82,North,-999,0.0,5.0,34,0.00,,,0.00,714.00,VWS V14.01,2013-05-25 16:14:00,
2013-05-25 10:19:00,64.1,34.4,29.82,North,-999,3.0,3.0,33,0.00,,,0.00,758.00,VWS V14.01,2013-05-25 16:19:00,
2013-05-25 10:24:00,64.6,34.9,29.82,North,-999,0.0,4.0,33,0.00,,,0.00,749.00,VWS V14.01,2013-05-25 16:24:00,
2013-05-25 10:29:00,64.6,32.5,29.82,North,-999,0.0,6.0,30,0.00,,,0.00,773.00,VWS V14.01,2013-05-25 16:29:00,
2013-05-25 10:34:00,64.7,34.2,29.82,North,-999,0.0,6.0,32,0.00,,,0.00,722.00,VWS V14.01,2013-05-25 16:34:00,
2013-05-25 10:39:00,64.8,35.8,29.82,North,-999,0.0,3.0,34,0.00,,,0.00,643.00,VWS V14.01,2013-05-25 16:39:00,
2013-05-25 10:44:00,65.1,32.1,29.81,North,-999,1.0,6.0,29,0.00,,,0.00,763.00,VWS V14.01,2013-05-25 16:44:00,
2013-05-25 10:49:00,65.4,34.8,29.81,North,-999,0.0,0.0,32,0.00,,,0.00,784.00,VWS V14.01,2013-05-25 16:49:00,
2013-05-25 10:54:00,65.6,33.4,29.81,North,-999,4.0,10.0,30,0.00,,,0.00,805.00,VWS V14.01,2013-05-25 16:54:00,
2013-05-25 10:59:00,65.4,34.0,29.81,North,-999,3.0,6.0,31,0.00,,,0.00,826.00,VWS V14.01,2013-05-25 16:59:00,
2013-05-25 11:04:00,65.4,34.8,29.81,North,-999,3.0,9.0,32,0.00,,,0.00,865.00,VWS V14.01,2013-05-25 17:04:00,
2013-05-25 11:08:00,66.0,35.3,29.81,North,-999,6.0,6.0,32,0.00,,,0.00,830.00,VWS V14.01,2013-05-25 17:08:00,
2013-05-25 11:13:00,66.2,34.7,29.81,North,-999,1.0,7.0,31,0.00,,,0.00,895.00,VWS V14.01,2013-05-25 17:13:00,
2013-05-25 11:18:00,66.3,32.2,29.81,North,-999,3.0,4.0,28,0.00,,,0.00,907.00,VWS V14.01,2013-05-25 17:18:00,
2013-05-25 11:23:00,67.0,32.8,29.80,North,-999,1.0,4.0,28,0.00,,,0.00,930.00,VWS V14.01,2013-05-25 17:23:00,
2013-05-25 11:28:00,67.4,31.4,29.80,North,-999,0.0,0.0,26,0.00,,,0.00,918.00,VWS V14.01,2013-05-25 17:28:00,
2013-05-25 11:33:00,67.6,31.5,29.80,North,-999,1.0,7.0,26,0.00,,,0.00,861.00,VWS V14.01,2013-05-25 17:33:00,
2013-05-25 11:38:00,68.5,32.3,29.80,North,-999,0.0,0.0,26,0.00,,,0.00,893.00,VWS V14.01,2013-05-25 17:38:00,
2013-05-25 11:43:00,69.1,29.8,29.80,North,-999,2.0,5.0,23,0.00,,,0.00,944.00,VWS V14.01,2013-05-25 17:43:00,
2013-05-25 11:48:00,69.2,28.8,29.80,North,-999,2.0,5.0,22,0.00,,,0.00,932.00,VWS V14.01,2013-05-25 17:48:00,
2013-05-25 11:53:00,69.7,30.3,29.79,North,-999,5.0,8.0,23,0.00,,,0.00,939.00,VWS V14.01,2013-05-25 17:53:00,
2013-05-25 11:58:00,69.6,31.2,29.79,North,-999,2.0,4.0,24,0.00,,,0.00,744.00,VWS V14.01,2013-05-25 17:58:00,
2013-05-25 12:03:00,69.9,31.5,29.79,North,-999,0.0,5.0,24,0.00,,,0.00,963.00,VWS V14.01,2013-05-25 18:03:00,
2013-05-25 12:08:00,70.1,33.7,29.79,North,-999,6.0,6.0,26,0.00,,,0.00,1009.00,VWS V14.01,2013-05-25 18:08:00,
2013-05-25 12:13:00,70.4,30.9,29.78,North,-999,4.0,10.0,23,0.00,,,0.00,884.00,VWS V14.01,2013-05-25 18:13:00,
2013-05-25 12:18:00,70.1,31.7,29.78,North,-999,0.0,0.0,24,0.00,,,0.00,965.00,VWS V14.01,2013-05-25 18:18:00,
2013-05-25 12:23:00,70.0,32.6,29.78,North,-999,0.0,6.0,25,0.00,,,0.00,940.00,VWS V14.01,2013-05-25 18:23:00,
2013-05-25 12:28:00,69.7,32.3,29.78,North,-999,0.0,0.0,25,0.00,,,0.00,983.00,VWS V14.01,2013-05-25 18:28:00,
2013-05-25 12:33:00,70.6,33.1,29.78,North,-999,0.0,9.0,25,0.00,,,0.00,860.00,VWS V14.01,2013-05-25 18:33:00,
2013-05-25 12:38:00,71.3,31.6,29.78,North,-999,0.0,3.0,23,0.00,,,0.00,1016.00,VWS V14.01,2013-05-25 18:38:00,
2013-05-25 12:43:00,71.0,31.4,29.78,North,-999,4.0,9.0,23,0.00,,,0.00,1020.00,VWS V14.01,2013-05-25 18:43:00,
2013-05-25 12:48:00,70.9,31.3,29.77,North,-999,3.0,4.0,23,0.00,,,0.00,1039.00,VWS V14.01,2013-05-25 18:48:00,
2013-05-25 12:53:00,71.4,31.7,29.77,North,-999,0.0,4.0,23,0.00,,,0.00,1046.00,VWS V14.01,2013-05-25 18:53:00,
2013-05-25 12:58:00,72.1,33.3,29.77,North,-999,2.0,7.0,24,0.00,,,0.00,1041.00,VWS V14.01,2013-05-25 18:58:00,
2013-05-25 13:03:00,72.0,33.3,29.77,North,-999,0.0,7.0,24,0.00,,,0.00,1041.00,VWS V14.01,2013-05-25 19:03:00,
2013-05-25 13:08:00,72.6,32.7,29.77,North,-999,7.0,12.0,23,0.00,,,0.00,1034.00,VWS V14.01,2013-05-25 19:08:00,
2013-05-25 13:13:00,72.6,33.8,29.77,North,-999,0.0,12.0,24,0.00,,,0.00,977.00,VWS V14.01,2013-05-25 19:13:00,
2013-05-25 13:18:00,73.3,33.3,29.76,North,-999,2.0,6.0,23,0.00,,,0.00,1014.00,VWS V14.01,2013-05-25 19:18:00,
2013-05-25 13:23:00,73.4,34.5,29.76,North,-999,6.0,12.0,24,0.00,,,0.00,940.00,VWS V14.01,2013-05-25 19:23:00,
2013-05-25 13:28:00,73.6,33.5,29.76,North,-999,9.0,9.0,23,0.00,,,0.00,988.00,VWS V14.01,2013-05-25 19:28:00,
2013-05-25 13:33:00,73.5,33.5,29.76,North,-999,6.0,9.0,23,0.00,,,0.00,1025.00,VWS V14.01,2013-05-25 19:33:00,
2013-05-25 13:38:00,73.5,32.4,29.75,North,-999,0.0,4.0,22,0.00,,,0.00,1018.00,VWS V14.01,2013-05-25 19:38:00,
2013-05-25 13:43:00,73.8,33.7,29.75,North,-999,2.0,7.0,23,0.00,,,0.00,967.00,VWS V14.01,2013-05-25 19:43:00,
2013-05-25 13:48:00,74.6,33.3,29.75,North,-999,4.0,9.0,22,0.00,,,0.00,1025.00,VWS V14.01,2013-05-25 19:48:00,
2013-05-25 13:53:00,75.1,32.5,29.75,North,-999,0.0,10.0,21,0.00,,,0.00,1016.00,VWS V14.01,2013-05-25 19:53:00,
2013-05-25 13:58:00,75.2,32.6,29.75,North,-999,0.0,4.0,21,0.00,,,0.00,914.00,VWS V14.01,2013-05-25 19:58:00,
2013-05-25 14:03:00,75.5,32.9,29.75,North,-999,0.0,4.0,21,0.00,,,0.00,914.00,VWS V14.01,2013-05-25 20:03:00,
2013-05-25 14:08:00,76.4,32.4,29.75,North,-999,2.0,3.0,20,0.00,,,0.00,1076.00,VWS V14.01,2013-05-25 20:08:00,
2013-05-25 14:13:00,76.8,34.0,29.74,North,-999,0.0,5.0,21,0.00,,,0.00,380.00,VWS V14.01,2013-05-25 20:13:00,
2013-05-25 14:18:00,76.7,35.0,29.74,North,-999,2.0,5.0,22,0.00,,,0.00,466.00,VWS V14.01,2013-05-25 20:18:00,
2013-05-25 14:23:00,76.2,35.7,29.74,North,-999,4.0,9.0,23,0.00,,,0.00,802.00,VWS V14.01,2013-05-25 20:23:00,
2013-05-25 14:28:00,76.0,34.5,29.74,North,-999,5.0,7.0,22,0.00,,,0.00,893.00,VWS V14.01,2013-05-25 20:28:00,
2013-05-25 14:33:00,75.7,38.4,29.74,North,-999,10.0,11.0,26,0.00,,,0.00,383.00,VWS V14.01,2013-05-25 20:33:00,
2013-05-25 14:38:00,75.1,34.8,29.74,North,-999,12.0,12.0,23,0.00,,,0.00,427.00,VWS V14.01,2013-05-25 20:38:00,
2013-05-25 14:43:00,75.1,34.8,29.74,North,-999,5.0,13.0,23,0.00,,,0.00,482.00,VWS V14.01,2013-05-25 20:43:00,
2013-05-25 14:48:00,75.1,36.9,29.74,North,-999,10.0,11.0,25,0.00,,,0.00,533.00,VWS V14.01,2013-05-25 20:48:00,
2013-05-25 14:53:00,75.2,37.0,29.74,North,-999,8.0,12.0,25,0.00,,,0.00,854.00,VWS V14.01,2013-05-25 20:53:00,
2013-05-25 14:58:00,75.9,35.5,29.74,North,-999,9.0,9.0,23,0.00,,,0.00,949.00,VWS V14.01,2013-05-25 20:58:00,
2013-05-25 15:03:00,75.7,36.4,29.74,North,-999,10.0,11.0,24,0.00,,,0.00,360.00,VWS V14.01,2013-05-25 21:03:00,
2013-05-25 15:08:00,75.4,36.1,29.74,North,-999,7.0,7.0,24,0.00,,,0.00,432.00,VWS V14.01,2013-05-25 21:08:00,
2013-05-25 15:13:00,75.4,36.1,29.74,North,-999,10.0,13.0,24,0.00,,,0.00,415.00,VWS V14.01,2013-05-25 21:13:00,
2013-05-25 15:18:00,75.2,33.8,29.74,North,-999,8.0,10.0,22,0.00,,,0.00,373.00,VWS V14.01,2013-05-25 21:18:00,
2013-05-25 15:23:00,75.4,39.1,29.74,North,-999,9.0,12.0,27,0.00,,,0.00,703.00,VWS V14.01,2013-05-25 21:23:00,
2013-05-25 15:28:00,75.4,36.1,29.73,North,-999,15.0,16.0,24,0.00,,,0.00,436.00,VWS V14.01,2013-05-25 21:28:00,
2013-05-25 15:33:00,75.4,36.1,29.73,North,-999,15.0,17.0,24,0.00,,,0.00,823.00,VWS V14.01,2013-05-25 21:33:00,
2013-05-25 15:38:00,75.3,38.1,29.73,North,-999,13.0,16.0,26,0.00,,,0.00,659.00,VWS V14.01,2013-05-25 21:38:00,
2013-05-25 15:43:00,75.6,36.3,29.73,North,-999,17.0,17.0,24,0.00,,,0.00,919.00,VWS V14.01,2013-05-25 21:43:00,
2013-05-25 15:48:00,76.0,37.7,29.73,North,-999,11.0,12.0,25,0.00,,,0.00,879.00,VWS V14.01,2013-05-25 21:48:00,
2013-05-25 15:53:00,75.8,38.5,29.73,North,-999,13.0,23.0,26,0.00,,,0.00,891.00,VWS V14.01,2013-05-25 21:53:00,
2013-05-25 15:58:00,75.9,41.4,29.73,North,-999,20.0,21.0,29,0.00,,,0.00,809.00,VWS V14.01,2013-05-25 21:58:00,
2013-05-25 16:03:00,75.6,39.3,29.73,North,-999,13.0,25.0,27,0.00,,,0.00,844.00,VWS V14.01,2013-05-25 22:03:00,
2013-05-25 16:08:00,75.7,39.4,29.73,North,-999,9.0,15.0,27,0.00,,,0.00,923.00,VWS V14.01,2013-05-25 22:08:00,
2013-05-25 16:13:00,75.7,38.4,29.73,North,-999,18.0,22.0,26,0.00,,,0.00,315.00,VWS V14.01,2013-05-25 22:13:00,
2013-05-25 16:18:00,75.1,38.9,29.73,North,-999,17.0,20.0,27,0.00,,,0.00,323.00,VWS V14.01,2013-05-25 22:18:00,
2013-05-25 16:23:00,75.3,39.0,29.73,North,-999,20.0,24.0,27,0.00,,,0.00,898.00,VWS V14.01,2013-05-25 22:23:00,
2013-05-25 16:28:00,75.4,40.1,29.73,North,-999,16.0,17.0,28,0.00,,,0.00,925.00,VWS V14.01,2013-05-25 22:28:00,
2013-05-25 16:33:00,75.6,38.3,29.73,North,-999,18.0,23.0,26,0.00,,,0.00,860.00,VWS V14.01,2013-05-25 22:33:00,
2013-05-25 16:38:00,74.6,38.5,29.73,North,-999,16.0,19.0,27,0.00,,,0.00,311.00,VWS V14.01,2013-05-25 22:38:00,
2013-05-25 16:43:00,73.9,37.8,29.73,North,-999,18.0,25.0,27,0.00,,,0.00,339.00,VWS V14.01,2013-05-25 22:43:00,
2013-05-25 16:48:00,74.4,41.0,29.73,North,-999,22.0,24.0,30,0.00,,,0.00,823.00,VWS V14.01,2013-05-25 22:48:00,
2013-05-25 16:53:00,73.3,43.3,29.74,North,-999,18.0,32.0,34,0.00,,,0.00,698.00,VWS V14.01,2013-05-25 22:53:00,
2013-05-25 16:58:00,72.5,44.8,29.74,North,-999,19.0,23.0,37,0.00,,,0.00,731.00,VWS V14.01,2013-05-25 22:58:00,
2013-05-25 17:03:00,71.8,44.2,29.74,North,-999,21.0,31.0,37,0.00,,,0.00,531.00,VWS V14.01,2013-05-25 23:03:00,
2013-05-25 17:08:00,70.9,43.4,29.74,North,-999,23.0,25.0,37,0.00,,,0.00,322.00,VWS V14.01,2013-05-25 23:08:00,
2013-05-25 17:13:00,70.1,41.9,29.74,North,-999,25.0,32.0,36,0.00,,,0.00,441.00,VWS V14.01,2013-05-25 23:13:00,
2013-05-25 17:18:00,70.1,42.7,29.74,North,-999,23.0,23.0,37,0.00,,,0.00,383.00,VWS V14.01,2013-05-25 23:18:00,
2013-05-25 17:23:00,70.2,42.0,29.74,North,-999,27.0,30.0,36,0.00,,,0.00,554.00,VWS V14.01,2013-05-25 23:23:00,
2013-05-25 17:28:00,70.3,41.4,29.74,North,-999,30.0,32.0,35,0.00,,,0.00,589.00,VWS V14.01,2013-05-25 23:28:00,
2013-05-25 17:33:00,70.4,42.2,29.74,North,-999,25.0,32.0,36,0.00,,,0.00,396.00,VWS V14.01,2013-05-25 23:33:00,
2013-05-25 17:38:00,70.3,42.1,29.75,North,-999,21.0,21.0,36,0.00,,,0.00,302.00,VWS V14.01,2013-05-25 23:38:00,
2013-05-25 17:43:00,70.3,42.1,29.75,North,-999,17.0,30.0,36,0.00,,,0.00,248.00,VWS V14.01,2013-05-25 23:43:00,
2013-05-25 17:48:00,69.7,41.6,29.75,North,-999,21.0,21.0,36,0.00,,,0.00,148.00,VWS V14.01,2013-05-25 23:48:00,
2013-05-25 17:53:00,69.2,41.8,29.75,North,-999,15.0,31.0,37,0.00,,,0.00,148.00,VWS V14.01,2013-05-25 23:53:00,
2013-05-25 17:57:00,69.0,41.7,29.75,North,-999,16.0,32.0,37,0.00,,,0.00,167.00,VWS V14.01,2013-05-25 23:57:00,
2013-05-25 18:02:00,69.1,41.8,29.75,North,-999,23.0,31.0,37,0.00,,,0.00,327.00,VWS V14.01,2013-05-26 00:02:00,
2013-05-25 18:07:00,69.2,41.8,29.75,North,-999,18.0,31.0,37,0.00,,,0.00,353.00,VWS V14.01,2013-05-26 00:07:00,
2013-05-25 18:12:00,69.5,42.1,29.75,North,-999,16.0,30.0,37,0.00,,,0.00,306.00,VWS V14.01,2013-05-26 00:12:00,
2013-05-25 18:17:00,69.4,42.0,29.75,North,-999,13.0,30.0,37,0.00,,,0.00,204.00,VWS V14.01,2013-05-26 00:17:00,
2013-05-25 18:22:00,69.3,41.2,29.75,North,-999,27.0,30.0,36,0.00,,,0.00,111.00,VWS V14.01,2013-05-26 00:22:00,
2013-05-25 18:27:00,68.9,40.9,29.75,North,-999,23.0,30.0,36,0.00,,,0.00,104.00,VWS V14.01,2013-05-26 00:27:00,
2013-05-25 18:32:00,68.7,42.1,29.75,North,-999,20.0,28.0,38,0.00,,,0.00,142.00,VWS V14.01,2013-05-26 00:32:00,
2013-05-25 18:37:00,68.6,42.0,29.75,North,-999,20.0,28.0,38,0.00,,,0.00,98.00,VWS V14.01,2013-05-26 00:37:00,
2013-05-25 18:42:00,68.5,41.9,29.75,North,-999,20.0,25.0,38,0.00,,,0.00,79.00,VWS V14.01,2013-05-26 00:42:00,
2013-05-25 18:47:00,68.3,41.0,29.75,North,-999,16.0,27.0,37,0.00,,,0.00,83.00,VWS V14.01,2013-05-26 00:47:00,
2013-05-25 18:52:00,68.4,41.1,29.75,North,-999,19.0,26.0,37,0.00,,,0.00,190.00,VWS V14.01,2013-05-26 00:52:00,
2013-05-25 18:57:00,68.6,41.3,29.75,North,-999,19.0,27.0,37,0.00,,,0.00,197.00,VWS V14.01,2013-05-26 00:57:00,
2013-05-25 19:02:00,68.7,42.1,29.76,North,-999,10.0,23.0,38,0.00,,,0.00,179.00,VWS V14.01,2013-05-26 01:02:00,
2013-05-25 19:07:00,68.5,41.9,29.76,North,-999,16.0,27.0,38,0.00,,,0.00,114.00,VWS V14.01,2013-05-26 01:07:00,
2013-05-25 19:12:00,68.3,41.0,29.76,North,-999,15.0,26.0,37,0.00,,,0.00,186.00,VWS V14.01,2013-05-26 01:12:00,
2013-05-25 19:17:00,68.3,41.0,29.76,North,-999,19.0,26.0,37,0.00,,,0.00,181.00,VWS V14.01,2013-05-26 01:17:00,
2013-05-25 19:22:00,68.2,41.0,29.76,North,-999,22.0,24.0,37,0.00,,,0.00,130.00,VWS V14.01,2013-05-26 01:22:00,
2013-05-25 19:27:00,68.0,40.8,29.77,North,-999,10.0,24.0,37,0.00,,,0.00,95.00,VWS V14.01,2013-05-26 01:27:00,
2013-05-25 19:32:00,67.8,39.9,29.76,North,-999,17.0,26.0,36,0.00,,,0.00,77.00,VWS V14.01,2013-05-26 01:32:00,
2013-05-25 19:37:00,67.6,40.4,29.77,North,-999,19.0,27.0,37,0.00,,,0.00,81.00,VWS V14.01,2013-05-26 01:37:00,
2013-05-25 19:42:00,67.3,40.8,29.77,North,-999,21.0,28.0,38,0.00,,,0.00,91.00,VWS V14.01,2013-05-26 01:42:00,
2013-05-25 19:47:00,66.8,41.1,29.77,North,-999,7.0,28.0,39,0.00,,,0.00,79.00,VWS V14.01,2013-05-26 01:47:00,
2013-05-25 19:52:00,66.4,41.4,29.77,North,-999,16.0,19.0,40,0.00,,,0.00,51.00,VWS V14.01,2013-05-26 01:52:00,
2013-05-25 19:57:00,66.1,42.4,29.78,North,-999,11.0,22.0,42,0.00,,,0.00,46.00,VWS V14.01,2013-05-26 01:57:00,
2013-05-25 20:02:00,65.7,42.6,29.78,North,-999,10.0,17.0,43,0.00,,,0.00,39.00,VWS V14.01,2013-05-26 02:02:00,
2013-05-25 20:07:00,65.4,42.3,29.78,North,-999,6.0,18.0,43,0.00,,,0.00,32.00,VWS V14.01,2013-05-26 02:07:00,
2013-05-25 20:12:00,65.1,42.7,29.79,North,-999,15.0,15.0,44,0.00,,,0.00,33.00,VWS V14.01,2013-05-26 02:12:00,
2013-05-25 20:17:00,64.9,42.5,29.79,North,-999,10.0,16.0,44,0.00,,,0.00,28.00,VWS V14.01,2013-05-26 02:17:00,
2013-05-25 20:22:00,64.9,42.5,29.80,North,-999,11.0,15.0,44,0.00,,,0.00,19.00,VWS V14.01,2013-05-26 02:22:00,
2013-05-25 20:27:00,64.8,43.0,29.80,North,-999,11.0,15.0,45,0.00,,,0.00,14.00,VWS V14.01,2013-05-26 02:27:00,
2013-05-25 20:32:00,64.6,42.8,29.80,North,-999,12.0,15.0,45,0.00,,,0.00,11.00,VWS V14.01,2013-05-26 02:32:00,
2013-05-25 20:37:00,64.5,43.3,29.80,North,-999,13.0,15.0,46,0.00,,,0.00,7.00,VWS V14.01,2013-05-26 02:37:00,
2013-05-25 20:42:00,64.4,43.2,29.80,North,-999,14.0,17.0,46,0.00,,,0.00,5.00,VWS V14.01,2013-05-26 02:42:00,
2013-05-25 20:47:00,64.2,43.6,29.80,North,-999,13.0,17.0,47,0.00,,,0.00,5.00,VWS V14.01,2013-05-26 02:47:00,
2013-05-25 20:52:00,64.0,43.4,29.80,North,-999,15.0,17.0,47,0.00,,,0.00,0.00,VWS V14.01,2013-05-26 02:52:00,
2013-05-25 20:57:00,63.8,43.8,29.80,North,-999,10.0,18.0,48,0.00,,,0.00,0.00,VWS V14.01,2013-05-26 02:57:00,
2013-05-25 21:02:00,63.6,43.0,29.80,North,-999,15.0,17.0,47,0.00,,,0.00,0.00,VWS V14.01,2013-05-26 03:02:00,
2013-05-25 21:07:00,63.6,43.0,29.80,North,-999,12.0,17.0,47,0.00,,,0.00,0.00,VWS V14.01,2013-05-26 03:07:00,
2013-05-25 21:12:00,63.6,42.5,29.80,North,-999,11.0,14.0,46,0.00,,,0.00,0.00,VWS V14.01,2013-05-26 03:12:00,
2013-05-25 21:17:00,63.4,42.8,29.80,North,-999,6.0,14.0,47,0.00,,,0.00,0.00,VWS V14.01,2013-05-26 03:17:00,
2013-05-25 21:22:00,63.2,42.7,29.81,North,-999,11.0,16.0,47,0.00,,,0.00,0.00,VWS V14.01,2013-05-26 03:22:00,
2013-05-25 21:27:00,63.2,42.7,29.81,North,-999,7.0,16.0,47,0.00,,,0.00,0.00,VWS V14.01,2013-05-26 03:27:00,
2013-05-25 21:32:00,63.2,42.1,29.81,North,-999,13.0,19.0,46,0.00,,,0.00,0.00,VWS V14.01,2013-05-26 03:32:00,
2013-05-25 21:37:00,63.2,42.1,29.81,North,-999,11.0,19.0,46,0.00,,,0.00,0.00,VWS V14.01,2013-05-26 03:37:00,
2013-05-25 21:42:00,62.9,41.8,29.82,North,-999,7.0,13.0,46,0.00,,,0.00,0.00,VWS V14.01,2013-05-26 03:42:00,
2013-05-25 21:47:00,62.5,41.5,29.82,North,-999,7.0,15.0,46,0.00,,,0.00,0.00,VWS V14.01,2013-05-26 03:47:00,
2013-05-25 21:52:00,62.4,41.4,29.82,North,-999,9.0,17.0,46,0.00,,,0.00,0.00,VWS V14.01,2013-05-26 03:52:00,
2013-05-25 21:57:00,62.3,41.3,29.82,North,-999,8.0,17.0,46,0.00,,,0.00,0.00,VWS V14.01,2013-05-26 03:57:00,
2013-05-25 22:01:00,62.1,41.7,29.82,North,-999,7.0,15.0,47,0.00,,,0.00,0.00,VWS V14.01,2013-05-26 04:01:00,
2013-05-25 22:06:00,62.1,41.1,29.82,North,-999,14.0,15.0,46,0.00,,,0.00,0.00,VWS V14.01,2013-05-26 04:06:00,
2013-05-25 22:11:00,61.9,41.5,29.82,North,-999,9.0,14.0,47,0.00,,,0.00,0.00,VWS V14.01,2013-05-26 04:11:00,
2013-05-25 22:16:00,61.4,42.1,29.83,North,-999,10.0,14.0,49,0.00,,,0.00,0.00,VWS V14.01,2013-05-26 04:16:00,
2013-05-25 22:21:00,61.0,41.7,29.83,North,-999,7.0,11.0,49,0.00,,,0.00,0.00,VWS V14.01,2013-05-26 04:21:00,
2013-05-25 22:26:00,60.8,42.1,29.83,North,-999,9.0,11.0,50,0.00,,,0.00,0.00,VWS V14.01,2013-05-26 04:26:00,
2013-05-25 22:31:00,60.6,42.4,29.83,North,-999,9.0,10.0,51,0.00,,,0.00,0.00,VWS V14.01,2013-05-26 04:31:00,
2013-05-25 22:36:00,60.7,42.0,29.83,North,-999,6.0,13.0,50,0.00,,,0.00,0.00,VWS V14.01,2013-05-26 04:36:00,
2013-05-25 22:41:00,61.5,41.7,29.84,North,-999,8.0,14.0,48,0.00,,,0.00,0.00,VWS V14.01,2013-05-26 04:41:00,
2013-05-25 22:46:00,61.4,41.6,29.83,North,-999,10.0,14.0,48,0.00,,,0.00,0.00,VWS V14.01,2013-05-26 04:46:00,
2013-05-25 22:51:00,61.1,41.8,29.84,North,-999,6.0,10.0,49,0.00,,,0.00,0.00,VWS V14.01,2013-05-26 04:51:00,
2013-05-25 22:56:00,60.8,42.1,29.84,North,-999,5.0,10.0,50,0.00,,,0.00,0.00,VWS V14.01,2013-05-26 04:56:00,
2013-05-25 23:01:00,60.4,41.7,29.84,North,-999,6.0,10.0,50,0.00,,,0.00,0.00,VWS V14.01,2013-05-26 05:01:00,
2013-05-25 23:06:00,60.7,42.0,29.83,North,-999,5.0,10.0,50,0.00,,,0.00,0.00,VWS V14.01,2013-05-26 05:06:00,
2013-05-25 23:11:00,60.7,42.0,29.83,North,-999,5.0,9.0,50,0.00,,,0.00,0.00,VWS V14.01,2013-05-26 05:11:00,
2013-05-25 23:16:00,60.6,41.9,29.83,North,-999,5.0,9.0,50,0.00,,,0.00,0.00,VWS V14.01,2013-05-26 05:16:00,
2013-05-25 23:21:00,60.8,41.5,29.84,North,-999,12.0,14.0,49,0.00,,,0.00,0.00,VWS V14.01,2013-05-26 05:21:00,
2013-05-25 23:26:00,60.7,42.0,29.84,North,-999,9.0,14.0,50,0.00,,,0.00,0.00,VWS V14.01,2013-05-26 05:26:00,
2013-05-25 23:31:00,60.0,41.8,29.83,North,-999,3.0,7.0,51,0.00,,,0.00,0.00,VWS V14.01,2013-05-26 05:31:00,
2013-05-25 23:36:00,59.8,42.2,29.83,North,-999,7.0,9.0,52,0.00,,,0.00,0.00,VWS V14.01,2013-05-26 05:36:00,
2013-05-25 23:41:00,59.7,42.1,29.83,North,-999,7.0,9.0,52,0.00,,,0.00,0.00,VWS V14.01,2013-05-26 05:41:00,
2013-05-25 23:46:00,59.6,42.5,29.83,North,-999,7.0,11.0,53,0.00,,,0.00,0.00,VWS V14.01,2013-05-26 05:46:00,
2013-05-25 23:51:00,58.8,42.7,29.83,North,-999,2.0,10.0,55,0.00,,,0.00,0.00,VWS V14.01,2013-05-26 05:51:00,
2013-05-25 23:56:00,58.2,42.6,29.83,North,-999,4.0,10.0,56,0.00,,,0.00,0.00,VWS V14.01,2013-05-26 05:56:00,